sensor_id;sensor_type;location;lat;lon;timestamp;P1;durP1;ratioP1;P2;durP2;ratioP2
21611;SDS011;47005;52.292;13.452;2023-05-13T00:01:50;7.55;;;3.30;;
21611;SDS011;47005;52.292;13.452;2023-05-13T00:04:15;7.32;;;3.85;;
21611;SDS011;47005;52.292;13.452;2023-05-13T00:06:41;5.75;;;3.40;;
21611;SDS011;47005;52.292;13.452;2023-05-13T00:09:07;10.70;;;3.38;;
21611;SDS011;47005;52.292;13.452;2023-05-13T00:11:32;11.18;;;3.65;;
21611;SDS011;47005;52.292;13.452;2023-05-13T00:13:58;7.72;;;3.45;;
21611;SDS011;47005;52.292;13.452;2023-05-13T00:16:24;9.02;;;3.83;;
21611;SDS011;47005;52.292;13.452;2023-05-13T00:18:51;5.80;;;3.70;;
21611;SDS011;47005;52.292;13.452;2023-05-13T00:21:18;5.78;;;3.63;;
21611;SDS011;47005;52.292;13.452;2023-05-13T00:23:43;10.60;;;3.35;;
21611;SDS011;47005;52.292;13.452;2023-05-13T00:26:09;8.07;;;3.22;;
21611;SDS011;47005;52.292;13.452;2023-05-13T00:28:35;5.75;;;3.72;;
21611;SDS011;47005;52.292;13.452;2023-05-13T00:31:00;5.45;;;3.30;;
21611;SDS011;47005;52.292;13.452;2023-05-13T00:33:26;7.88;;;3.63;;
21611;SDS011;47005;52.292;13.452;2023-05-13T00:35:52;7.78;;;3.38;;
21611;SDS011;47005;52.292;13.452;2023-05-13T00:38:17;8.30;;;3.63;;
21611;SDS011;47005;52.292;13.452;2023-05-13T00:40:43;6.50;;;3.72;;
21611;SDS011;47005;52.292;13.452;2023-05-13T00:43:09;8.43;;;4.25;;
21611;SDS011;47005;52.292;13.452;2023-05-13T00:45:36;6.25;;;3.55;;
21611;SDS011;47005;52.292;13.452;2023-05-13T00:48:03;9.70;;;4.32;;
21611;SDS011;47005;52.292;13.452;2023-05-13T00:50:30;9.70;;;3.95;;
21611;SDS011;47005;52.292;13.452;2023-05-13T00:52:57;9.77;;;4.72;;
21611;SDS011;47005;52.292;13.452;2023-05-13T00:55:23;5.45;;;3.60;;
21611;SDS011;47005;52.292;13.452;2023-05-13T00:57:49;6.47;;;3.70;;
21611;SDS011;47005;52.292;13.452;2023-05-13T01:00:15;4.95;;;3.85;;
21611;SDS011;47005;52.292;13.452;2023-05-13T01:02:47;3.92;;;2.83;;
21611;SDS011;47005;52.292;13.452;2023-05-13T01:11:28;7.93;;;3.60;;
21611;SDS011;47005;52.292;13.452;2023-05-13T01:14:18;7.13;;;3.65;;
21611;SDS011;47005;52.292;13.452;2023-05-13T01:16:56;6.90;;;3.85;;
21611;SDS011;47005;52.292;13.452;2023-05-13T01:21:54;8.00;;;3.28;;
21611;SDS011;47005;52.292;13.452;2023-05-13T01:24:20;5.65;;;3.15;;
21611;SDS011;47005;52.292;13.452;2023-05-13T01:26:46;5.22;;;3.50;;
21611;SDS011;47005;52.292;13.452;2023-05-13T01:29:12;7.07;;;4.03;;
21611;SDS011;47005;52.292;13.452;2023-05-13T01:31:38;5.40;;;3.60;;
21611;SDS011;47005;52.292;13.452;2023-05-13T01:34:06;11.23;;;4.25;;
21611;SDS011;47005;52.292;13.452;2023-05-13T01:36:34;6.95;;;4.20;;
21611;SDS011;47005;52.292;13.452;2023-05-13T01:39:01;8.88;;;3.70;;
21611;SDS011;47005;52.292;13.452;2023-05-13T01:41:27;6.25;;;4.15;;
21611;SDS011;47005;52.292;13.452;2023-05-13T01:43:53;5.90;;;3.47;;
21611;SDS011;47005;52.292;13.452;2023-05-13T01:46:19;4.63;;;3.40;;
21611;SDS011;47005;52.292;13.452;2023-05-13T01:48:44;5.82;;;3.10;;
21611;SDS011;47005;52.292;13.452;2023-05-13T01:51:10;6.38;;;3.75;;
21611;SDS011;47005;52.292;13.452;2023-05-13T01:53:36;8.43;;;3.88;;
21611;SDS011;47005;52.292;13.452;2023-05-13T01:56:01;8.55;;;4.30;;
21611;SDS011;47005;52.292;13.452;2023-05-13T01:58:27;5.57;;;3.90;;
21611;SDS011;47005;52.292;13.452;2023-05-13T02:00:53;6.22;;;3.78;;
21611;SDS011;47005;52.292;13.452;2023-05-13T02:03:18;4.72;;;3.38;;
21611;SDS011;47005;52.292;13.452;2023-05-13T02:05:45;6.25;;;4.13;;
21611;SDS011;47005;52.292;13.452;2023-05-13T02:08:11;5.50;;;3.85;;
21611;SDS011;47005;52.292;13.452;2023-05-13T02:10:37;7.35;;;4.00;;
21611;SDS011;47005;52.292;13.452;2023-05-13T02:13:03;11.05;;;3.65;;
21611;SDS011;47005;52.292;13.452;2023-05-13T02:15:28;5.95;;;3.63;;
21611;SDS011;47005;52.292;13.452;2023-05-13T02:17:54;9.23;;;4.18;;
21611;SDS011;47005;52.292;13.452;2023-05-13T02:20:19;8.30;;;3.85;;
21611;SDS011;47005;52.292;13.452;2023-05-13T02:22:45;5.32;;;3.75;;
21611;SDS011;47005;52.292;13.452;2023-05-13T02:25:11;10.68;;;4.15;;
21611;SDS011;47005;52.292;13.452;2023-05-13T02:27:36;5.53;;;4.15;;
21611;SDS011;47005;52.292;13.452;2023-05-13T02:30:02;9.65;;;4.03;;
21611;SDS011;47005;52.292;13.452;2023-05-13T02:32:28;6.55;;;4.03;;
21611;SDS011;47005;52.292;13.452;2023-05-13T02:34:53;5.93;;;4.15;;
21611;SDS011;47005;52.292;13.452;2023-05-13T02:37:19;8.83;;;4.43;;
21611;SDS011;47005;52.292;13.452;2023-05-13T02:39:45;6.05;;;3.88;;
21611;SDS011;47005;52.292;13.452;2023-05-13T02:42:10;6.97;;;4.15;;
21611;SDS011;47005;52.292;13.452;2023-05-13T02:44:36;11.35;;;4.22;;
21611;SDS011;47005;52.292;13.452;2023-05-13T02:47:02;9.23;;;4.35;;
21611;SDS011;47005;52.292;13.452;2023-05-13T02:49:27;9.65;;;4.25;;
21611;SDS011;47005;52.292;13.452;2023-05-13T02:51:53;10.40;;;3.85;;
21611;SDS011;47005;52.292;13.452;2023-05-13T02:54:19;5.43;;;3.77;;
21611;SDS011;47005;52.292;13.452;2023-05-13T02:56:44;9.60;;;3.95;;
21611;SDS011;47005;52.292;13.452;2023-05-13T02:59:10;5.22;;;3.88;;
21611;SDS011;47005;52.292;13.452;2023-05-13T03:01:35;8.27;;;4.47;;
21611;SDS011;47005;52.292;13.452;2023-05-13T03:04:01;9.80;;;4.38;;
21611;SDS011;47005;52.292;13.452;2023-05-13T03:06:27;8.83;;;4.97;;
21611;SDS011;47005;52.292;13.452;2023-05-13T03:08:52;8.02;;;3.88;;
21611;SDS011;47005;52.292;13.452;2023-05-13T03:11:18;5.97;;;3.90;;
21611;SDS011;47005;52.292;13.452;2023-05-13T03:13:44;7.47;;;4.20;;
21611;SDS011;47005;52.292;13.452;2023-05-13T03:16:09;11.90;;;4.60;;
21611;SDS011;47005;52.292;13.452;2023-05-13T03:18:35;5.68;;;4.05;;
21611;SDS011;47005;52.292;13.452;2023-05-13T03:21:00;8.63;;;4.82;;
21611;SDS011;47005;52.292;13.452;2023-05-13T03:23:27;7.40;;;4.43;;
21611;SDS011;47005;52.292;13.452;2023-05-13T03:25:52;5.27;;;3.73;;
21611;SDS011;47005;52.292;13.452;2023-05-13T03:28:18;8.80;;;4.53;;
21611;SDS011;47005;52.292;13.452;2023-05-13T03:30:43;10.00;;;4.70;;
21611;SDS011;47005;52.292;13.452;2023-05-13T03:33:09;5.53;;;3.92;;
21611;SDS011;47005;52.292;13.452;2023-05-13T03:35:35;5.37;;;3.87;;
21611;SDS011;47005;52.292;13.452;2023-05-13T03:38:01;10.33;;;4.50;;
21611;SDS011;47005;52.292;13.452;2023-05-13T03:40:26;5.60;;;4.13;;
21611;SDS011;47005;52.292;13.452;2023-05-13T03:42:52;7.77;;;4.30;;
21611;SDS011;47005;52.292;13.452;2023-05-13T03:45:18;6.13;;;4.47;;
21611;SDS011;47005;52.292;13.452;2023-05-13T03:47:43;12.83;;;4.43;;
21611;SDS011;47005;52.292;13.452;2023-05-13T03:50:09;6.20;;;4.25;;
21611;SDS011;47005;52.292;13.452;2023-05-13T03:52:35;12.50;;;5.00;;
21611;SDS011;47005;52.292;13.452;2023-05-13T03:55:00;9.10;;;4.60;;
21611;SDS011;47005;52.292;13.452;2023-05-13T03:57:26;7.10;;;4.47;;
21611;SDS011;47005;52.292;13.452;2023-05-13T03:59:51;9.80;;;5.23;;
21611;SDS011;47005;52.292;13.452;2023-05-13T04:02:17;12.03;;;4.60;;
21611;SDS011;47005;52.292;13.452;2023-05-13T04:04:45;8.57;;;4.63;;
21611;SDS011;47005;52.292;13.452;2023-05-13T04:07:11;5.83;;;4.27;;
21611;SDS011;47005;52.292;13.452;2023-05-13T04:09:36;5.93;;;4.50;;
21611;SDS011;47005;52.292;13.452;2023-05-13T04:12:02;9.07;;;4.53;;
21611;SDS011;47005;52.292;13.452;2023-05-13T04:14:28;9.03;;;4.47;;
21611;SDS011;47005;52.292;13.452;2023-05-13T04:16:54;8.80;;;4.80;;
21611;SDS011;47005;52.292;13.452;2023-05-13T04:19:19;6.90;;;4.10;;
21611;SDS011;47005;52.292;13.452;2023-05-13T04:21:45;10.50;;;4.43;;
21611;SDS011;47005;52.292;13.452;2023-05-13T04:24:11;5.90;;;4.03;;
21611;SDS011;47005;52.292;13.452;2023-05-13T04:26:36;4.80;;;3.60;;
21611;SDS011;47005;52.292;13.452;2023-05-13T04:29:02;8.53;;;3.83;;
21611;SDS011;47005;52.292;13.452;2023-05-13T04:31:28;8.33;;;4.80;;
21611;SDS011;47005;52.292;13.452;2023-05-13T04:33:54;7.80;;;4.28;;
21611;SDS011;47005;52.292;13.452;2023-05-13T04:36:20;4.95;;;3.42;;
21611;SDS011;47005;52.292;13.452;2023-05-13T04:38:46;11.38;;;5.00;;
21611;SDS011;47005;52.292;13.452;2023-05-13T04:41:11;8.03;;;4.33;;
21611;SDS011;47005;52.292;13.452;2023-05-13T04:43:37;5.50;;;4.40;;
21611;SDS011;47005;52.292;13.452;2023-05-13T04:46:02;6.35;;;4.07;;
21611;SDS011;47005;52.292;13.452;2023-05-13T04:48:28;8.00;;;4.77;;
21611;SDS011;47005;52.292;13.452;2023-05-13T04:50:54;9.13;;;5.17;;
21611;SDS011;47005;52.292;13.452;2023-05-13T04:53:20;5.95;;;3.95;;
21611;SDS011;47005;52.292;13.452;2023-05-13T04:55:47;8.80;;;4.07;;
21611;SDS011;47005;52.292;13.452;2023-05-13T04:58:13;8.75;;;4.10;;
21611;SDS011;47005;52.292;13.452;2023-05-13T05:00:39;6.30;;;4.30;;
21611;SDS011;47005;52.292;13.452;2023-05-13T05:03:04;5.32;;;4.10;;
21611;SDS011;47005;52.292;13.452;2023-05-13T05:05:30;5.20;;;3.72;;
21611;SDS011;47005;52.292;13.452;2023-05-13T05:07:55;6.40;;;4.10;;
21611;SDS011;47005;52.292;13.452;2023-05-13T05:10:21;6.25;;;4.45;;
21611;SDS011;47005;52.292;13.452;2023-05-13T05:12:47;5.90;;;4.10;;
21611;SDS011;47005;52.292;13.452;2023-05-13T05:15:12;8.95;;;3.85;;
21611;SDS011;47005;52.292;13.452;2023-05-13T05:17:41;16.20;;;3.90;;
21611;SDS011;47005;52.292;13.452;2023-05-13T05:20:08;12.30;;;4.53;;
21611;SDS011;47005;52.292;13.452;2023-05-13T05:22:35;5.70;;;3.67;;
21611;SDS011;47005;52.292;13.452;2023-05-13T05:25:01;11.77;;;3.92;;
21611;SDS011;47005;52.292;13.452;2023-05-13T05:27:27;8.50;;;4.20;;
21611;SDS011;47005;52.292;13.452;2023-05-13T05:29:53;4.68;;;3.45;;
21611;SDS011;47005;52.292;13.452;2023-05-13T05:32:18;8.32;;;3.78;;
21611;SDS011;47005;52.292;13.452;2023-05-13T05:34:44;9.65;;;4.43;;
21611;SDS011;47005;52.292;13.452;2023-05-13T05:37:10;5.95;;;4.05;;
21611;SDS011;47005;52.292;13.452;2023-05-13T05:39:35;9.18;;;3.97;;
21611;SDS011;47005;52.292;13.452;2023-05-13T05:42:01;7.95;;;4.50;;
21611;SDS011;47005;52.292;13.452;2023-05-13T05:44:26;7.82;;;4.63;;
21611;SDS011;47005;52.292;13.452;2023-05-13T05:46:52;9.07;;;3.83;;
21611;SDS011;47005;52.292;13.452;2023-05-13T05:49:18;11.55;;;3.80;;
21611;SDS011;47005;52.292;13.452;2023-05-13T05:51:44;5.78;;;3.30;;
21611;SDS011;47005;52.292;13.452;2023-05-13T05:54:09;9.15;;;3.50;;
21611;SDS011;47005;52.292;13.452;2023-05-13T05:56:35;6.60;;;3.65;;
21611;SDS011;47005;52.292;13.452;2023-05-13T05:59:01;5.75;;;3.53;;
21611;SDS011;47005;52.292;13.452;2023-05-13T06:01:26;6.63;;;3.42;;
21611;SDS011;47005;52.292;13.452;2023-05-13T06:03:57;5.93;;;3.60;;
21611;SDS011;47005;52.292;13.452;2023-05-13T06:06:23;5.10;;;3.20;;
21611;SDS011;47005;52.292;13.452;2023-05-13T06:08:49;8.40;;;3.60;;
21611;SDS011;47005;52.292;13.452;2023-05-13T06:11:14;6.28;;;3.20;;
21611;SDS011;47005;52.292;13.452;2023-05-13T06:13:40;6.80;;;3.58;;
21611;SDS011;47005;52.292;13.452;2023-05-13T06:16:06;7.60;;;2.92;;
21611;SDS011;47005;52.292;13.452;2023-05-13T06:18:31;8.82;;;3.60;;
21611;SDS011;47005;52.292;13.452;2023-05-13T06:20:57;5.55;;;3.10;;
21611;SDS011;47005;52.292;13.452;2023-05-13T06:23:23;8.00;;;3.47;;
21611;SDS011;47005;52.292;13.452;2023-05-13T06:25:48;8.57;;;3.50;;
21611;SDS011;47005;52.292;13.452;2023-05-13T06:28:14;10.05;;;3.97;;
21611;SDS011;47005;52.292;13.452;2023-05-13T06:30:40;7.18;;;3.50;;
21611;SDS011;47005;52.292;13.452;2023-05-13T06:33:07;6.15;;;2.92;;
21611;SDS011;47005;52.292;13.452;2023-05-13T06:35:34;5.72;;;3.00;;
21611;SDS011;47005;52.292;13.452;2023-05-13T06:38:01;4.78;;;2.75;;
21611;SDS011;47005;52.292;13.452;2023-05-13T06:40:26;3.15;;;2.33;;
21611;SDS011;47005;52.292;13.452;2023-05-13T06:42:55;8.60;;;3.40;;
21611;SDS011;47005;52.292;13.452;2023-05-13T06:45:20;6.90;;;2.88;;
21611;SDS011;47005;52.292;13.452;2023-05-13T06:47:50;5.97;;;3.53;;
21611;SDS011;47005;52.292;13.452;2023-05-13T06:50:17;5.00;;;2.83;;
21611;SDS011;47005;52.292;13.452;2023-05-13T06:52:43;5.38;;;2.85;;
21611;SDS011;47005;52.292;13.452;2023-05-13T06:55:08;4.28;;;2.63;;
21611;SDS011;47005;52.292;13.452;2023-05-13T06:57:34;5.18;;;3.13;;
21611;SDS011;47005;52.292;13.452;2023-05-13T07:00:00;4.45;;;2.92;;
21611;SDS011;47005;52.292;13.452;2023-05-13T07:02:27;4.57;;;2.95;;
21611;SDS011;47005;52.292;13.452;2023-05-13T07:04:53;6.20;;;3.05;;
21611;SDS011;47005;52.292;13.452;2023-05-13T07:07:18;7.05;;;2.92;;
21611;SDS011;47005;52.292;13.452;2023-05-13T07:09:44;5.85;;;3.63;;
21611;SDS011;47005;52.292;13.452;2023-05-13T07:12:10;7.78;;;3.75;;
21611;SDS011;47005;52.292;13.452;2023-05-13T07:14:35;4.40;;;2.60;;
21611;SDS011;47005;52.292;13.452;2023-05-13T07:17:01;6.35;;;3.00;;
21611;SDS011;47005;52.292;13.452;2023-05-13T07:19:28;4.60;;;2.63;;
21611;SDS011;47005;52.292;13.452;2023-05-13T07:21:54;5.45;;;2.70;;
21611;SDS011;47005;52.292;13.452;2023-05-13T07:24:19;4.30;;;2.67;;
21611;SDS011;47005;52.292;13.452;2023-05-13T07:26:45;5.85;;;2.30;;
21611;SDS011;47005;52.292;13.452;2023-05-13T07:29:11;3.88;;;2.20;;
21611;SDS011;47005;52.292;13.452;2023-05-13T07:31:36;3.40;;;2.42;;
21611;SDS011;47005;52.292;13.452;2023-05-13T07:34:03;4.53;;;2.63;;
21611;SDS011;47005;52.292;13.452;2023-05-13T07:36:29;4.65;;;2.45;;
21611;SDS011;47005;52.292;13.452;2023-05-13T07:38:54;4.63;;;2.35;;
21611;SDS011;47005;52.292;13.452;2023-05-13T07:41:20;5.28;;;3.13;;
21611;SDS011;47005;52.292;13.452;2023-05-13T07:43:46;3.60;;;2.50;;
21611;SDS011;47005;52.292;13.452;2023-05-13T07:46:11;4.20;;;2.60;;
21611;SDS011;47005;52.292;13.452;2023-05-13T07:48:37;7.47;;;2.63;;
21611;SDS011;47005;52.292;13.452;2023-05-13T07:51:03;7.88;;;2.55;;
21611;SDS011;47005;52.292;13.452;2023-05-13T07:53:29;3.92;;;2.35;;
21611;SDS011;47005;52.292;13.452;2023-05-13T07:55:55;4.05;;;2.15;;
21611;SDS011;47005;52.292;13.452;2023-05-13T07:58:20;4.95;;;2.40;;
21611;SDS011;47005;52.292;13.452;2023-05-13T08:00:46;5.72;;;3.30;;
21611;SDS011;47005;52.292;13.452;2023-05-13T08:03:13;4.00;;;2.50;;
21611;SDS011;47005;52.292;13.452;2023-05-13T08:05:40;6.47;;;2.17;;
21611;SDS011;47005;52.292;13.452;2023-05-13T08:08:06;4.07;;;2.63;;
21611;SDS011;47005;52.292;13.452;2023-05-13T08:10:31;4.57;;;2.70;;
21611;SDS011;47005;52.292;13.452;2023-05-13T08:12:57;4.68;;;2.58;;
21611;SDS011;47005;52.292;13.452;2023-05-13T08:15:25;5.82;;;2.35;;
21611;SDS011;47005;52.292;13.452;2023-05-13T08:17:52;9.70;;;3.00;;
21611;SDS011;47005;52.292;13.452;2023-05-13T08:20:18;4.07;;;2.72;;
21611;SDS011;47005;52.292;13.452;2023-05-13T08:22:44;4.70;;;3.00;;
21611;SDS011;47005;52.292;13.452;2023-05-13T08:25:11;5.43;;;2.88;;
21611;SDS011;47005;52.292;13.452;2023-05-13T08:27:37;5.45;;;2.90;;
21611;SDS011;47005;52.292;13.452;2023-05-13T08:30:03;4.65;;;3.08;;
21611;SDS011;47005;52.292;13.452;2023-05-13T08:32:30;5.50;;;2.92;;
21611;SDS011;47005;52.292;13.452;2023-05-13T08:34:55;5.30;;;3.00;;
21611;SDS011;47005;52.292;13.452;2023-05-13T08:37:21;5.45;;;2.70;;
21611;SDS011;47005;52.292;13.452;2023-05-13T08:39:47;7.07;;;2.80;;
21611;SDS011;47005;52.292;13.452;2023-05-13T08:42:13;3.60;;;2.38;;
21611;SDS011;47005;52.292;13.452;2023-05-13T08:44:43;8.70;;;3.30;;
21611;SDS011;47005;52.292;13.452;2023-05-13T08:49:44;4.85;;;2.97;;
21611;SDS011;47005;52.292;13.452;2023-05-13T08:52:10;5.15;;;3.20;;
21611;SDS011;47005;52.292;13.452;2023-05-13T08:54:36;7.80;;;2.53;;
21611;SDS011;47005;52.292;13.452;2023-05-13T08:57:02;9.38;;;3.22;;
21611;SDS011;47005;52.292;13.452;2023-05-13T08:59:28;6.15;;;2.53;;
21611;SDS011;47005;52.292;13.452;2023-05-13T09:01:54;4.63;;;2.60;;
21611;SDS011;47005;52.292;13.452;2023-05-13T09:04:20;4.50;;;2.80;;
21611;SDS011;47005;52.292;13.452;2023-05-13T09:06:46;6.82;;;3.00;;
21611;SDS011;47005;52.292;13.452;2023-05-13T09:09:12;8.15;;;2.90;;
21611;SDS011;47005;52.292;13.452;2023-05-13T09:11:38;9.88;;;3.08;;
21611;SDS011;47005;52.292;13.452;2023-05-13T09:14:04;4.70;;;3.13;;
21611;SDS011;47005;52.292;13.452;2023-05-13T09:16:31;4.78;;;3.08;;
21611;SDS011;47005;52.292;13.452;2023-05-13T09:18:58;9.43;;;2.97;;
21611;SDS011;47005;52.292;13.452;2023-05-13T09:21:25;5.93;;;2.65;;
21611;SDS011;47005;52.292;13.452;2023-05-13T09:24:10;6.75;;;2.67;;
21611;SDS011;47005;52.292;13.452;2023-05-13T09:26:37;5.10;;;2.58;;
21611;SDS011;47005;52.292;13.452;2023-05-13T09:31:40;5.70;;;2.80;;
21611;SDS011;47005;52.292;13.452;2023-05-13T09:34:06;7.20;;;2.53;;
21611;SDS011;47005;52.292;13.452;2023-05-13T09:36:32;6.63;;;3.00;;
21611;SDS011;47005;52.292;13.452;2023-05-13T09:38:58;5.47;;;2.97;;
21611;SDS011;47005;52.292;13.452;2023-05-13T09:41:25;5.95;;;2.85;;
21611;SDS011;47005;52.292;13.452;2023-05-13T09:43:51;5.95;;;2.90;;
21611;SDS011;47005;52.292;13.452;2023-05-13T09:46:17;12.27;;;3.28;;
21611;SDS011;47005;52.292;13.452;2023-05-13T09:48:44;4.00;;;2.20;;
21611;SDS011;47005;52.292;13.452;2023-05-13T09:51:10;3.80;;;2.50;;
21611;SDS011;47005;52.292;13.452;2023-05-13T09:53:36;3.83;;;2.10;;
21611;SDS011;47005;52.292;13.452;2023-05-13T09:56:01;6.63;;;2.28;;
21611;SDS011;47005;52.292;13.452;2023-05-13T09:58:27;3.25;;;1.92;;
21611;SDS011;47005;52.292;13.452;2023-05-13T10:00:55;2.90;;;1.65;;
21611;SDS011;47005;52.292;13.452;2023-05-13T10:03:21;5.70;;;2.55;;
21611;SDS011;47005;52.292;13.452;2023-05-13T10:05:48;8.50;;;2.42;;
21611;SDS011;47005;52.292;13.452;2023-05-13T10:08:15;6.53;;;2.30;;
21611;SDS011;47005;52.292;13.452;2023-05-13T10:10:43;8.10;;;2.40;;
21611;SDS011;47005;52.292;13.452;2023-05-13T10:13:15;5.05;;;2.60;;
21611;SDS011;47005;52.292;13.452;2023-05-13T10:18:14;3.95;;;2.15;;
21611;SDS011;47005;52.292;13.452;2023-05-13T10:20:41;3.83;;;2.42;;
21611;SDS011;47005;52.292;13.452;2023-05-13T10:23:08;5.68;;;2.17;;
21611;SDS011;47005;52.292;13.452;2023-05-13T10:25:35;4.18;;;2.00;;
21611;SDS011;47005;52.292;13.452;2023-05-13T10:28:02;4.10;;;2.50;;
21611;SDS011;47005;52.292;13.452;2023-05-13T10:30:29;5.97;;;2.40;;
21611;SDS011;47005;52.292;13.452;2023-05-13T10:32:56;4.40;;;1.98;;
21611;SDS011;47005;52.292;13.452;2023-05-13T10:35:26;4.28;;;2.47;;
21611;SDS011;47005;52.292;13.452;2023-05-13T10:44:50;6.00;;;2.28;;
21611;SDS011;47005;52.292;13.452;2023-05-13T10:47:21;5.13;;;2.63;;
21611;SDS011;47005;52.292;13.452;2023-05-13T10:49:50;3.60;;;2.25;;
21611;SDS011;47005;52.292;13.452;2023-05-13T10:52:16;5.68;;;2.47;;
21611;SDS011;47005;52.292;13.452;2023-05-13T10:54:42;4.45;;;2.75;;
21611;SDS011;47005;52.292;13.452;2023-05-13T10:57:26;4.50;;;2.15;;
21611;SDS011;47005;52.292;13.452;2023-05-13T11:00:11;5.05;;;2.58;;
21611;SDS011;47005;52.292;13.452;2023-05-13T11:02:38;3.88;;;2.25;;
21611;SDS011;47005;52.292;13.452;2023-05-13T11:05:04;7.85;;;2.20;;
21611;SDS011;47005;52.292;13.452;2023-05-13T11:07:29;4.53;;;2.42;;
21611;SDS011;47005;52.292;13.452;2023-05-13T11:09:55;6.43;;;2.83;;
21611;SDS011;47005;52.292;13.452;2023-05-13T11:12:21;4.00;;;2.53;;
21611;SDS011;47005;52.292;13.452;2023-05-13T11:14:46;3.30;;;2.03;;
21611;SDS011;47005;52.292;13.452;2023-05-13T11:17:15;2.80;;;1.95;;
21611;SDS011;47005;52.292;13.452;2023-05-13T11:19:46;3.08;;;2.00;;
21611;SDS011;47005;52.292;13.452;2023-05-13T11:24:45;7.45;;;2.75;;
21611;SDS011;47005;52.292;13.452;2023-05-13T11:27:37;4.03;;;1.88;;
21611;SDS011;47005;52.292;13.452;2023-05-13T11:30:04;40.60;;;5.70;;
21611;SDS011;47005;52.292;13.452;2023-05-13T11:35:29;21.73;;;3.25;;
21611;SDS011;47005;52.292;13.452;2023-05-13T11:38:00;12.98;;;2.65;;
21611;SDS011;47005;52.292;13.452;2023-05-13T11:40:28;6.95;;;3.10;;
21611;SDS011;47005;52.292;13.452;2023-05-13T11:42:58;6.13;;;2.72;;
21611;SDS011;47005;52.292;13.452;2023-05-13T11:45:24;5.22;;;2.65;;
21611;SDS011;47005;52.292;13.452;2023-05-13T11:47:51;8.50;;;2.22;;
21611;SDS011;47005;52.292;13.452;2023-05-13T11:50:22;3.22;;;2.33;;
21611;SDS011;47005;52.292;13.452;2023-05-13T11:52:57;6.07;;;2.03;;
21611;SDS011;47005;52.292;13.452;2023-05-13T11:55:31;6.40;;;2.10;;
21611;SDS011;47005;52.292;13.452;2023-05-13T11:57:59;3.70;;;2.38;;
21611;SDS011;47005;52.292;13.452;2023-05-13T12:00:25;4.03;;;2.60;;
21611;SDS011;47005;52.292;13.452;2023-05-13T12:02:55;3.83;;;2.40;;
21611;SDS011;47005;52.292;13.452;2023-05-13T12:05:22;5.32;;;2.28;;
21611;SDS011;47005;52.292;13.452;2023-05-13T12:07:48;5.95;;;2.20;;
21611;SDS011;47005;52.292;13.452;2023-05-13T12:10:15;4.18;;;2.33;;
21611;SDS011;47005;52.292;13.452;2023-05-13T12:12:42;4.65;;;2.30;;
21611;SDS011;47005;52.292;13.452;2023-05-13T12:17:37;3.58;;;2.10;;
21611;SDS011;47005;52.292;13.452;2023-05-13T12:30:37;4.03;;;2.55;;
21611;SDS011;47005;52.292;13.452;2023-05-13T12:33:29;4.68;;;2.47;;
21611;SDS011;47005;52.292;13.452;2023-05-13T12:38:59;8.40;;;2.72;;
21611;SDS011;47005;52.292;13.452;2023-05-13T12:41:33;6.20;;;2.58;;
21611;SDS011;47005;52.292;13.452;2023-05-13T12:44:01;4.70;;;2.70;;
21611;SDS011;47005;52.292;13.452;2023-05-13T12:46:28;5.32;;;2.10;;
21611;SDS011;47005;52.292;13.452;2023-05-13T12:48:58;4.35;;;2.55;;
21611;SDS011;47005;52.292;13.452;2023-05-13T12:51:25;5.82;;;2.75;;
21611;SDS011;47005;52.292;13.452;2023-05-13T12:53:51;4.57;;;2.53;;
21611;SDS011;47005;52.292;13.452;2023-05-13T12:56:18;4.50;;;2.30;;
21611;SDS011;47005;52.292;13.452;2023-05-13T12:58:46;5.90;;;3.10;;
21611;SDS011;47005;52.292;13.452;2023-05-13T13:01:12;5.57;;;2.78;;
21611;SDS011;47005;52.292;13.452;2023-05-13T13:03:37;5.07;;;2.75;;
21611;SDS011;47005;52.292;13.452;2023-05-13T13:06:03;6.80;;;2.25;;
21611;SDS011;47005;52.292;13.452;2023-05-13T13:08:29;4.60;;;2.85;;
21611;SDS011;47005;52.292;13.452;2023-05-13T13:10:54;4.40;;;2.50;;
21611;SDS011;47005;52.292;13.452;2023-05-13T13:13:20;6.00;;;2.45;;
21611;SDS011;47005;52.292;13.452;2023-05-13T13:15:46;3.80;;;2.28;;
21611;SDS011;47005;52.292;13.452;2023-05-13T13:18:11;3.83;;;2.90;;
21611;SDS011;47005;52.292;13.452;2023-05-13T13:20:37;5.95;;;2.55;;
21611;SDS011;47005;52.292;13.452;2023-05-13T13:23:03;7.20;;;3.00;;
21611;SDS011;47005;52.292;13.452;2023-05-13T13:25:28;3.85;;;2.60;;
21611;SDS011;47005;52.292;13.452;2023-05-13T13:27:54;4.90;;;3.03;;
21611;SDS011;47005;52.292;13.452;2023-05-13T13:30:20;5.13;;;2.65;;
21611;SDS011;47005;52.292;13.452;2023-05-13T13:32:45;5.28;;;3.15;;
21611;SDS011;47005;52.292;13.452;2023-05-13T13:35:11;3.53;;;2.70;;
21611;SDS011;47005;52.292;13.452;2023-05-13T13:37:37;5.82;;;3.03;;
21611;SDS011;47005;52.292;13.452;2023-05-13T13:40:03;3.95;;;2.50;;
21611;SDS011;47005;52.292;13.452;2023-05-13T13:42:29;4.85;;;2.53;;
21611;SDS011;47005;52.292;13.452;2023-05-13T13:44:55;3.92;;;2.70;;
21611;SDS011;47005;52.292;13.452;2023-05-13T13:47:20;4.85;;;2.47;;
21611;SDS011;47005;52.292;13.452;2023-05-13T13:49:46;3.83;;;2.38;;
21611;SDS011;47005;52.292;13.452;2023-05-13T13:52:12;6.82;;;2.50;;
21611;SDS011;47005;52.292;13.452;2023-05-13T13:54:38;4.03;;;2.55;;
21611;SDS011;47005;52.292;13.452;2023-05-13T13:57:03;10.25;;;2.78;;
21611;SDS011;47005;52.292;13.452;2023-05-13T13:59:29;5.88;;;2.90;;
21611;SDS011;47005;52.292;13.452;2023-05-13T14:01:55;7.45;;;2.88;;
21611;SDS011;47005;52.292;13.452;2023-05-13T14:04:21;3.78;;;2.65;;
21611;SDS011;47005;52.292;13.452;2023-05-13T14:06:50;5.68;;;2.47;;
21611;SDS011;47005;52.292;13.452;2023-05-13T14:09:16;6.13;;;2.75;;
21611;SDS011;47005;52.292;13.452;2023-05-13T14:11:41;6.25;;;2.90;;
21611;SDS011;47005;52.292;13.452;2023-05-13T14:14:07;7.55;;;2.45;;
21611;SDS011;47005;52.292;13.452;2023-05-13T14:16:33;4.43;;;2.67;;
21611;SDS011;47005;52.292;13.452;2023-05-13T14:18:59;6.78;;;2.33;;
21611;SDS011;47005;52.292;13.452;2023-05-13T14:21:25;3.95;;;2.50;;
21611;SDS011;47005;52.292;13.452;2023-05-13T14:23:50;5.15;;;2.80;;
21611;SDS011;47005;52.292;13.452;2023-05-13T14:26:16;7.15;;;2.72;;
21611;SDS011;47005;52.292;13.452;2023-05-13T14:28:42;6.07;;;2.42;;
21611;SDS011;47005;52.292;13.452;2023-05-13T14:31:08;4.00;;;2.63;;
21611;SDS011;47005;52.292;13.452;2023-05-13T14:33:34;11.52;;;2.85;;
21611;SDS011;47005;52.292;13.452;2023-05-13T14:36:00;5.88;;;2.38;;
21611;SDS011;47005;52.292;13.452;2023-05-13T14:38:26;3.85;;;2.30;;
21611;SDS011;47005;52.292;13.452;2023-05-13T14:40:52;5.90;;;3.00;;
21611;SDS011;47005;52.292;13.452;2023-05-13T14:43:20;5.93;;;2.92;;
21611;SDS011;47005;52.292;13.452;2023-05-13T14:45:46;3.85;;;2.30;;
21611;SDS011;47005;52.292;13.452;2023-05-13T14:48:11;4.00;;;2.65;;
21611;SDS011;47005;52.292;13.452;2023-05-13T14:50:38;5.63;;;2.90;;
21611;SDS011;47005;52.292;13.452;2023-05-13T14:53:03;6.50;;;2.60;;
21611;SDS011;47005;52.292;13.452;2023-05-13T14:55:29;3.47;;;2.78;;
21611;SDS011;47005;52.292;13.452;2023-05-13T14:57:55;5.38;;;2.38;;
21611;SDS011;47005;52.292;13.452;2023-05-13T15:00:20;3.72;;;2.55;;
21611;SDS011;47005;52.292;13.452;2023-05-13T15:02:46;3.72;;;2.53;;
21611;SDS011;47005;52.292;13.452;2023-05-13T15:05:12;8.15;;;3.17;;
21611;SDS011;47005;52.292;13.452;2023-05-13T15:07:37;4.93;;;3.33;;
21611;SDS011;47005;52.292;13.452;2023-05-13T15:10:03;4.03;;;2.45;;
21611;SDS011;47005;52.292;13.452;2023-05-13T15:12:29;10.65;;;3.03;;
21611;SDS011;47005;52.292;13.452;2023-05-13T15:14:55;4.25;;;2.88;;